createdAt,value
2022-12-23T18:50:09.000Z,87.10
2022-12-23T18:51:23.994Z,87.51
2022-12-23T18:52:45.692Z,87.64
2022-12-23T18:53:50.326Z,87.74
2022-12-23T18:54:59.571Z,87.80
2022-12-23T18:56:03.015Z,87.66
2022-12-23T18:57:10.210Z,87.59
2022-12-23T18:58:18.859Z,87.36
2022-12-23T18:59:30.038Z,87.02
2022-12-23T19:00:40.721Z,86.79
2022-12-23T19:01:46.852Z,86.23
2022-12-23T19:02:58.404Z,85.96
2022-12-23T19:04:09.320Z,85.54
2022-12-23T19:05:23.269Z,85.00
2022-12-23T19:06:38.748Z,84.57
2022-12-23T19:07:53.750Z,84.23
2022-12-23T19:09:01.944Z,83.68
2022-12-23T19:10:07.249Z,83.16
2022-12-23T19:11:23.630Z,82.70
2022-12-23T19:12:32.049Z,82.38
2022-12-23T19:13:43.199Z,82.13
2022-12-23T19:14:55.042Z,81.86
2022-12-23T19:16:02.821Z,81.59
2022-12-23T19:17:13.107Z,81.22
2022-12-23T19:18:29.214Z,81.05
2022-12-23T19:19:35.839Z,80.75
2022-12-23T19:20:52.132Z,80.53
2022-12-23T19:21:58.636Z,80.25
2022-12-23T19:23:27.529Z,80.05
2022-12-23T19:24:51.932Z,79.72
2022-12-23T19:26:20.250Z,79.46
2022-12-23T19:27:26.461Z,79.32
2022-12-23T19:28:37.109Z,79.07
2022-12-23T19:29:42.460Z,79.06
2022-12-23T19:31:19.452Z,78.83
2022-12-23T19:32:29.200Z,78.70
2022-12-23T19:33:48.190Z,78.44
2022-12-23T19:35:04.383Z,78.27
2022-12-23T19:36:29.091Z,78.19
2022-12-23T19:37:47.379Z,77.95
2022-12-23T19:39:04.789Z,77.67
2022-12-23T19:40:18.108Z,77.58
2022-12-23T19:41:25.874Z,77.58
2022-12-23T19:42:29.284Z,77.45
2022-12-23T19:43:42.320Z,77.27
2022-12-23T19:44:52.564Z,77.25
2022-12-23T19:46:05.287Z,77.11
2022-12-23T19:47:14.567Z,77.07
2022-12-23T19:48:26.067Z,76.88
2022-12-23T19:49:47.271Z,76.88
2022-12-23T19:51:02.254Z,76.91
2022-12-23T19:52:27.734Z,76.83
2022-12-23T19:53:41.746Z,76.64
2022-12-23T19:55:05.408Z,76.66
2022-12-23T19:56:37.800Z,76.59
2022-12-23T19:57:53.521Z,76.71
2022-12-23T19:59:22.645Z,76.31
2022-12-23T20:00:34.805Z,76.34
2022-12-23T20:01:50.793Z,76.34
2022-12-23T20:02:59.913Z,76.16
2022-12-23T20:04:26.183Z,76.24
2022-12-23T20:05:52.251Z,76.17
2022-12-23T20:07:23.450Z,76.08
2022-12-23T20:08:39.568Z,76.01
2022-12-23T20:09:50.661Z,75.91
2022-12-23T20:11:11.999Z,75.94
2022-12-23T20:12:29.811Z,76.06
2022-12-23T20:13:49.531Z,75.79
2022-12-23T20:15:06.474Z,75.84
2022-12-23T20:16:14.621Z,75.93
2022-12-23T20:17:28.085Z,75.98
2022-12-23T20:18:45.300Z,75.79
2022-12-23T20:20:01.402Z,75.74
2022-12-23T20:21:09.300Z,75.68
2022-12-23T20:22:16.771Z,75.75
2022-12-23T20:23:32.399Z,75.86
2022-12-23T20:24:54.209Z,75.85
2022-12-23T20:26:17.267Z,75.54
2022-12-23T20:27:28.307Z,75.62
2022-12-23T20:28:33.771Z,75.60
2022-12-23T20:29:37.295Z,75.58
2022-12-23T20:31:06.204Z,75.61
2022-12-23T20:32:23.378Z,75.61
2022-12-23T20:33:45.805Z,75.65
2022-12-23T20:35:00.890Z,75.57
2022-12-23T20:36:11.020Z,75.59
2022-12-23T20:37:25.006Z,75.56
2022-12-23T20:38:36.428Z,75.43
2022-12-23T20:40:00.808Z,75.51
2022-12-23T20:41:06.754Z,75.49
2022-12-23T20:42:14.023Z,75.51
2022-12-23T20:43:21.564Z,75.62
2022-12-23T20:44:36.889Z,75.52
2022-12-23T20:45:53.736Z,75.60
2022-12-23T20:46:57.304Z,75.43
2022-12-23T20:48:11.190Z,75.56
2022-12-23T20:49:22.143Z,75.55
2022-12-23T20:51:08.028Z,75.43
2022-12-23T20:52:21.076Z,75.51
2022-12-23T20:53:34.980Z,75.51
2022-12-23T20:54:56.293Z,75.36
2022-12-23T20:56:14.000Z,75.42
2022-12-23T20:57:18.029Z,75.38
2022-12-23T20:58:49.108Z,75.44
2022-12-23T20:59:52.043Z,75.45
2022-12-23T21:01:27.593Z,75.45
2022-12-23T21:02:44.079Z,75.42
2022-12-23T21:03:49.710Z,75.45
2022-12-23T21:05:06.250Z,75.32
2022-12-23T21:06:20.428Z,75.54
2022-12-23T21:07:28.299Z,75.56
2022-12-23T21:08:55.444Z,75.48
2022-12-23T21:10:04.884Z,75.48
2022-12-23T21:11:10.198Z,75.50
2022-12-23T21:12:23.314Z,75.36
2022-12-23T21:13:31.864Z,75.48
2022-12-23T21:14:46.765Z,75.42
2022-12-23T21:15:54.906Z,75.54
2022-12-23T21:16:58.095Z,75.54
2022-12-23T21:18:04.246Z,75.48
2022-12-23T21:19:16.940Z,75.46
2022-12-23T21:20:19.819Z,75.47
2022-12-23T21:21:26.996Z,75.36
2022-12-23T21:22:44.099Z,75.51
2022-12-23T21:23:48.363Z,75.48
2022-12-23T21:24:59.217Z,75.54
2022-12-23T21:26:26.527Z,75.46
2022-12-23T21:27:39.114Z,75.52
2022-12-23T21:28:51.312Z,75.35
2022-12-23T21:29:58.688Z,75.40
2022-12-23T21:31:04.581Z,75.47
2022-12-23T21:32:17.953Z,75.49
2022-12-23T21:33:33.410Z,75.49
2022-12-23T21:34:37.777Z,75.67
2022-12-23T21:35:43.895Z,75.65
2022-12-23T21:37:10.107Z,75.46
2022-12-23T21:38:15.415Z,75.55
2022-12-23T21:39:21.087Z,75.46
2022-12-23T21:40:32.861Z,75.52
2022-12-23T21:41:38.338Z,75.55
2022-12-23T21:42:41.441Z,75.66
2022-12-23T21:43:45.035Z,75.53
2022-12-23T21:44:51.575Z,75.60
2022-12-23T21:46:12.244Z,75.67
2022-12-23T21:47:21.200Z,75.61
2022-12-23T21:48:24.209Z,75.52
2022-12-23T21:49:34.913Z,75.58
2022-12-23T21:50:52.951Z,75.55
2022-12-23T21:51:56.884Z,75.57
2022-12-23T21:53:02.291Z,75.55
2022-12-23T21:54:42.376Z,75.63
2022-12-23T21:55:59.833Z,75.45
2022-12-23T21:57:08.397Z,75.58
2022-12-23T21:58:19.303Z,75.64
2022-12-23T21:59:29.657Z,75.48
2022-12-23T22:00:49.030Z,75.49
2022-12-23T22:01:54.306Z,75.57
2022-12-23T22:02:57.587Z,75.46
2022-12-23T22:04:05.472Z,75.53
2022-12-23T22:05:14.067Z,75.62
2022-12-23T22:06:33.688Z,75.50
2022-12-23T22:07:40.706Z,75.53
2022-12-23T22:08:44.923Z,75.54
2022-12-23T22:09:54.603Z,75.58
2022-12-23T22:11:00.237Z,75.58
2022-12-23T22:12:06.535Z,75.63
2022-12-23T22:13:10.904Z,75.51
2022-12-23T22:14:18.731Z,75.57
2022-12-23T22:15:27.713Z,75.66
2022-12-23T22:16:35.029Z,75.51
2022-12-23T22:17:38.270Z,75.66
2022-12-23T22:18:51.391Z,75.47
2022-12-23T22:19:59.542Z,75.55
2022-12-23T22:21:22.119Z,75.57
2022-12-23T22:22:27.698Z,75.49
2022-12-23T22:23:39.632Z,75.44
2022-12-23T22:24:49.770Z,75.51
2022-12-23T22:25:56.807Z,75.51
2022-12-23T22:27:09.134Z,75.43
2022-12-23T22:28:12.279Z,75.46
2022-12-23T22:29:20.584Z,75.36
2022-12-23T22:30:37.237Z,75.36
2022-12-23T22:31:51.200Z,75.22
2022-12-23T22:33:01.517Z,75.34
2022-12-23T22:34:09.144Z,75.39
2022-12-23T22:35:27.535Z,75.42
2022-12-23T22:36:40.508Z,75.62
2022-12-23T22:37:46.808Z,75.60
2022-12-23T22:39:07.589Z,75.54
2022-12-23T22:40:15.689Z,75.60
2022-12-23T22:41:18.095Z,75.68
2022-12-23T22:42:20.256Z,75.44
2022-12-23T22:43:22.427Z,75.65
2022-12-23T22:44:24.786Z,75.63
2022-12-23T22:45:28.086Z,75.55
2022-12-23T22:46:30.912Z,75.68
2022-12-23T22:47:35.570Z,75.74
2022-12-23T22:48:38.927Z,75.72
2022-12-23T22:49:41.130Z,75.70
2022-12-23T22:50:44.117Z,75.83
2022-12-23T22:51:46.599Z,75.98
2022-12-23T22:52:48.822Z,76.18
2022-12-23T22:53:51.069Z,76.47
2022-12-23T22:54:53.217Z,76.92
2022-12-23T22:56:00.269Z,76.99
2022-12-23T22:57:02.504Z,77.12
2022-12-23T22:58:04.801Z,77.37
2022-12-23T22:59:07.130Z,77.70
2022-12-23T23:00:12.558Z,78.08
2022-12-23T23:01:22.612Z,78.33
2022-12-23T23:02:26.131Z,78.55
2022-12-23T23:03:30.612Z,78.51
2022-12-23T23:04:32.827Z,78.77
2022-12-23T23:05:35.188Z,78.67
2022-12-23T23:06:38.947Z,78.62
2022-12-23T23:07:41.127Z,78.31
2022-12-23T23:08:43.321Z,78.47
2022-12-23T23:09:45.762Z,78.21
2022-12-23T23:10:47.989Z,78.24
2022-12-23T23:11:50.368Z,78.21
2022-12-23T23:12:52.547Z,78.03
2022-12-23T23:13:55.403Z,77.80
2022-12-23T23:14:57.556Z,77.74
2022-12-23T23:15:59.926Z,77.65
2022-12-23T23:17:02.182Z,77.74
2022-12-23T23:18:04.607Z,77.45
2022-12-23T23:19:09.179Z,77.59
2022-12-23T23:20:11.597Z,77.56
2022-12-23T23:21:14.629Z,77.51
2022-12-23T23:22:18.867Z,77.56
2022-12-23T23:23:22.363Z,77.65
2022-12-23T23:24:30.948Z,77.83
2022-12-23T23:25:33.789Z,77.85
2022-12-23T23:26:35.957Z,77.81
2022-12-23T23:27:39.075Z,77.73
2022-12-23T23:28:42.442Z,77.81
2022-12-23T23:29:44.765Z,77.76
2022-12-23T23:30:47.085Z,77.89
2022-12-23T23:31:49.278Z,77.90
2022-12-23T23:32:51.554Z,77.96
2022-12-23T23:33:53.967Z,78.06
2022-12-23T23:34:56.124Z,78.12
2022-12-23T23:35:59.203Z,78.10
2022-12-23T23:37:01.825Z,77.91
2022-12-23T23:38:04.087Z,77.92
2022-12-23T23:39:06.308Z,77.82
2022-12-23T23:40:13.803Z,77.80
2022-12-23T23:41:20.653Z,77.62
2022-12-23T23:42:25.284Z,77.62
2022-12-23T23:43:27.441Z,77.70
2022-12-23T23:44:30.110Z,77.59
2022-12-23T23:45:32.512Z,77.43
2022-12-23T23:46:35.034Z,77.56
2022-12-23T23:47:37.453Z,77.39
2022-12-23T23:48:39.852Z,77.25
2022-12-23T23:49:42.013Z,77.11
2022-12-23T23:50:44.802Z,77.02
2022-12-23T23:51:47.178Z,77.05
2022-12-23T23:52:49.359Z,76.82
2022-12-23T23:53:51.529Z,77.04
2022-12-23T23:54:53.696Z,76.82
2022-12-23T23:56:07.015Z,76.53
2022-12-23T23:57:10.255Z,76.34
2022-12-23T23:58:13.054Z,76.43
2022-12-23T23:59:15.233Z,76.31
